Arklow Rogue — EIGD — position and weather

sailwx.info

Track history (hours):
 
Tides and Currents Weather Stations Pressure Air Temp Water Temp Dewpoint Dewpoint Depression Visibility Wind Speed Wind Dir Waves Ship Positions

Arklow Rogue

Last reported at 2015-Aug-03 05:34 UTC. Time now 2015-Aug-03 15:08 UTC.
Position N 50°08' W 001°43'.

Length 90 m; draft 3.4 m.

Type: Cargo ship. MMSI: 250000960.

Date/timePositionNaut miles runAvg speedWind from/ knotsBaromVisibWave heightAir tempDewpointWater temp
2015-Aug-03 05:34N 50°08' W 001°43'24 7.9
2015-Aug-03 02:32N 50°12' W 002°20'2010.0
2015-Aug-03 00:33N 50°12' W 002°51'158 7.8
2015-Aug-02 04:23N 51°47' W 006°11'1012.8
2015-Aug-02 03:34N 51°57' W 006°12'1312.4
2015-Aug-02 02:29N 52°10' W 006°07'1314.4
2015-Aug-02 01:33N 52°23' W 006°05'7311.3
2015-Aug-01 19:09N 53°36' W 005°58'711.9
2015-Aug-01 18:33N 53°43' W 005°59'1312.3
2015-Aug-01 17:31N 53°56' W 006°01'13 0.5
2015-Jul-31 16:16N 54°06' W 006°15'7 9.9
2015-Jul-31 15:33N 54°02' W 006°06'1110.5
2015-Jul-31 14:33N 53°51' W 006°01'1312.5
2015-Jul-31 13:33N 53°39' W 005°59'  
2015-Jul-28 12:30N 52°35' W 006°01'9 9.4
2015-Jul-28 11:33N 52°26' W 005°60'9 9.3
2015-Jul-28 10:33N 52°17' W 005°59'10 9.6
2015-Jul-28 09:33N 52°08' W 006°02'1110.6
2015-Jul-28 08:33N 51°57' W 006°07'154 6.2
2015-Jul-27 07:33N 50°10' W 003°12'9 9.5
2015-Jul-27 06:33N 50°11' W 002°58'118 9.1
2015-Jul-26 17:33N 50°33' E 000°04'17 8.4
2015-Jul-26 15:33N 50°38' E 000°29'9 9.0
2015-Jul-26 14:33N 50°42' E 000°41'1010.2
2015-Jul-26 13:33N 50°48' E 000°55'1111.4
2015-Jul-26 12:33N 50°55' E 001°09'1211.7
2015-Jul-26 11:33N 51°02' E 001°23'1111.3
2015-Jul-26 10:33N 51°10' E 001°37'1010.5
2015-Jul-26 09:33N 51°18' E 001°48'1010.3
2015-Jul-26 08:33N 51°27' E 001°54'1010.3
2015-Jul-26 07:33N 51°35' E 002°06'1110.7
2015-Jul-26 06:31N 51°42' E 002°18'1311.3
2015-Jul-26 05:22N 51°52' E 002°33'4411.5
2015-Jul-26 01:33N 52°04' E 003°41'1111.2
2015-Jul-26 00:33N 52°01' E 003°59'1111.5
2015-Jul-25 23:33N 51°55' E 004°14'8 8.4
2015-Jul-25 22:33N 51°50' E 004°26'8 8.2
2015-Jul-25 21:34N 51°48' E 004°38'0 0.4
2015-Jul-25 20:34N 51°48' E 004°39'0 0.0
2015-Jul-25 19:34N 51°48' E 004°39'0 0.0
2015-Jul-25 18:34N 51°48' E 004°39'0 0.0
2015-Jul-25 17:34N 51°48' E 004°39'0 0.0
2015-Jul-25 16:34N 51°48' E 004°39'0 0.0
2015-Jul-25 15:34N 51°48' E 004°39'0 0.0
2015-Jul-25 14:34N 51°48' E 004°39'0 0.0
2015-Jul-25 13:34N 51°48' E 004°39'0 0.0
2015-Jul-25 12:34N 51°48' E 004°39'0 0.0
2015-Jul-25 11:34N 51°48' E 004°39'0 0.0
2015-Jul-25 10:34N 51°48' E 004°39'0 0.0
2015-Jul-25 09:33N 51°48' E 004°39'0 0.0
2015-Jul-25 08:31N 51°48' E 004°39'0 0.0
2015-Jul-25 07:33N 51°48' E 004°39'0 0.0
2015-Jul-25 06:33N 51°48' E 004°39'0 0.0
2015-Jul-25 05:34N 51°48' E 004°39'0 0.0
2015-Jul-25 04:33N 51°48' E 004°39'0 0.0
2015-Jul-25 03:33N 51°48' E 004°39'0 0.0
2015-Jul-25 02:33N 51°48' E 004°39'0 0.0
2015-Jul-25 01:33N 51°48' E 004°39'0 0.0
2015-Jul-25 00:34N 51°48' E 004°39'0 0.0
2015-Jul-24 23:34N 51°48' E 004°39'0 0.0
2015-Jul-24 22:34N 51°48' E 004°39'0 0.0
2015-Jul-24 21:34N 51°48' E 004°39'0 0.0
2015-Jul-24 20:34N 51°48' E 004°39'0 0.0
2015-Jul-24 19:33N 51°48' E 004°39'0 0.0
2015-Jul-24 18:34N 51°48' E 004°39'0 0.0
2015-Jul-24 17:33N 51°48' E 004°39'0 0.0
2015-Jul-24 16:34N 51°48' E 004°39'0 0.0
2015-Jul-24 15:34N 51°48' E 004°39'0 0.0
2015-Jul-24 14:33N 51°48' E 004°39'0 0.0
2015-Jul-24 13:34N 51°48' E 004°39'0 0.0
2015-Jul-24 12:34N 51°48' E 004°39'0 0.0
2015-Jul-24 11:34N 51°48' E 004°39'0 0.0
2015-Jul-24 10:33N 51°48' E 004°39'0 0.0
2015-Jul-24 09:33N 51°48' E 004°39'2 2.1
2015-Jul-24 08:33N 51°48' E 004°36'1110.7
2015-Jul-24 07:33N 51°53' E 004°20'4 4.4
2015-Jul-24 06:34N 51°54' E 004°26'  
Track history (hours):
 
Tides and Currents Weather Stations Pressure Air Temp Water Temp Dewpoint Dewpoint Depression Visibility Wind Speed Wind Dir Waves Ship Positions

Arklow Rogue

Last reported at 2015-Aug-03 05:34 UTC. Time now 2015-Aug-03 15:08 UTC.
Position N 50°08' W 001°43'.

Length 90 m; draft 3.4 m.

Type: Cargo ship. MMSI: 250000960.

Date/timePositionNaut miles runAvg speedWind from/ knotsBaromVisibWave heightAir tempDewpointWater temp
2015-Aug-03 05:34N 50°08' W 001°43'24 7.9
2015-Aug-03 02:32N 50°12' W 002°20'2010.0
2015-Aug-03 00:33N 50°12' W 002°51'158 7.8
2015-Aug-02 04:23N 51°47' W 006°11'1012.8
2015-Aug-02 03:34N 51°57' W 006°12'1312.4
2015-Aug-02 02:29N 52°10' W 006°07'1314.4
2015-Aug-02 01:33N 52°23' W 006°05'7311.3
2015-Aug-01 19:09N 53°36' W 005°58'711.9
2015-Aug-01 18:33N 53°43' W 005°59'1312.3
2015-Aug-01 17:31N 53°56' W 006°01'13 0.5
2015-Jul-31 16:16N 54°06' W 006°15'7 9.9
2015-Jul-31 15:33N 54°02' W 006°06'1110.5
2015-Jul-31 14:33N 53°51' W 006°01'1312.5
2015-Jul-31 13:33N 53°39' W 005°59'  
2015-Jul-28 12:30N 52°35' W 006°01'9 9.4
2015-Jul-28 11:33N 52°26' W 005°60'9 9.3
2015-Jul-28 10:33N 52°17' W 005°59'10 9.6
2015-Jul-28 09:33N 52°08' W 006°02'1110.6
2015-Jul-28 08:33N 51°57' W 006°07'154 6.2
2015-Jul-27 07:33N 50°10' W 003°12'9 9.5
2015-Jul-27 06:33N 50°11' W 002°58'118 9.1
2015-Jul-26 17:33N 50°33' E 000°04'17 8.4
2015-Jul-26 15:33N 50°38' E 000°29'9 9.0
2015-Jul-26 14:33N 50°42' E 000°41'1010.2
2015-Jul-26 13:33N 50°48' E 000°55'1111.4
2015-Jul-26 12:33N 50°55' E 001°09'1211.7
2015-Jul-26 11:33N 51°02' E 001°23'1111.3
2015-Jul-26 10:33N 51°10' E 001°37'1010.5
2015-Jul-26 09:33N 51°18' E 001°48'1010.3
2015-Jul-26 08:33N 51°27' E 001°54'1010.3
2015-Jul-26 07:33N 51°35' E 002°06'1110.7
2015-Jul-26 06:31N 51°42' E 002°18'1311.3
2015-Jul-26 05:22N 51°52' E 002°33'4411.5
2015-Jul-26 01:33N 52°04' E 003°41'1111.2
2015-Jul-26 00:33N 52°01' E 003°59'1111.5
2015-Jul-25 23:33N 51°55' E 004°14'8 8.4
2015-Jul-25 22:33N 51°50' E 004°26'8 8.2
2015-Jul-25 21:34N 51°48' E 004°38'0 0.4
2015-Jul-25 20:34N 51°48' E 004°39'0 0.0
2015-Jul-25 19:34N 51°48' E 004°39'0 0.0
2015-Jul-25 18:34N 51°48' E 004°39'0 0.0
2015-Jul-25 17:34N 51°48' E 004°39'0 0.0
2015-Jul-25 16:34N 51°48' E 004°39'0 0.0
2015-Jul-25 15:34N 51°48' E 004°39'0 0.0
2015-Jul-25 14:34N 51°48' E 004°39'0 0.0
2015-Jul-25 13:34N 51°48' E 004°39'0 0.0
2015-Jul-25 12:34N 51°48' E 004°39'0 0.0
2015-Jul-25 11:34N 51°48' E 004°39'0 0.0
2015-Jul-25 10:34N 51°48' E 004°39'0 0.0
2015-Jul-25 09:33N 51°48' E 004°39'0 0.0
2015-Jul-25 08:31N 51°48' E 004°39'0 0.0
2015-Jul-25 07:33N 51°48' E 004°39'0 0.0
2015-Jul-25 06:33N 51°48' E 004°39'0 0.0
2015-Jul-25 05:34N 51°48' E 004°39'0 0.0
2015-Jul-25 04:33N 51°48' E 004°39'0 0.0
2015-Jul-25 03:33N 51°48' E 004°39'0 0.0
2015-Jul-25 02:33N 51°48' E 004°39'0 0.0
2015-Jul-25 01:33N 51°48' E 004°39'0 0.0
2015-Jul-25 00:34N 51°48' E 004°39'0 0.0
2015-Jul-24 23:34N 51°48' E 004°39'0 0.0
2015-Jul-24 22:34N 51°48' E 004°39'0 0.0
2015-Jul-24 21:34N 51°48' E 004°39'0 0.0
2015-Jul-24 20:34N 51°48' E 004°39'0 0.0
2015-Jul-24 19:33N 51°48' E 004°39'0 0.0
2015-Jul-24 18:34N 51°48' E 004°39'0 0.0
2015-Jul-24 17:33N 51°48' E 004°39'0 0.0
2015-Jul-24 16:34N 51°48' E 004°39'0 0.0
2015-Jul-24 15:34N 51°48' E 004°39'0 0.0
2015-Jul-24 14:33N 51°48' E 004°39'0 0.0
2015-Jul-24 13:34N 51°48' E 004°39'0 0.0
2015-Jul-24 12:34N 51°48' E 004°39'0 0.0
2015-Jul-24 11:34N 51°48' E 004°39'0 0.0
2015-Jul-24 10:33N 51°48' E 004°39'0 0.0
2015-Jul-24 09:33N 51°48' E 004°39'2 2.1
2015-Jul-24 08:33N 51°48' E 004°36'1110.7
2015-Jul-24 07:33N 51°53' E 004°20'4 4.4
2015-Jul-24 06:34N 51°54' E 004°26'  

Dump ship's entire track history